Time;durP1;ratioP1;P1;durP2;ratioP2;P2;SDS_P1;SDS_P2;PMS_P1;PMS_P2;Temp;Humidity;BMP_temperature;BMP_pressure;BME280_temperature;BME280_humidity;BME280_pressure;Samples;Min_cycle;Max_cycle;Signal;HPM_P1;HPM_P2
2023/10/15 00:03:24;;;;;;;7.73;1.67;;;;;;;-145.68;86.13;74331.38;10477598;28;20191;-70
2023/10/15 00:08:24;;;;;;;3.53;1.23;;;;;;;-145.68;88.40;74355.38;10476794;28;20215;-70
2023/10/15 00:13:25;;;;;;;6.30;2.30;;;;;;;-145.68;90.95;74377.38;10476833;28;20215;-70
2023/10/15 00:18:25;;;;;;;4.83;1.87;;;;;;;-145.68;91.58;74375.38;10476262;28;20822;-70
2023/10/15 00:23:26;;;;;;;6.50;1.77;;;;;;;-145.68;91.02;74359.38;10471149;28;20568;-70
2023/10/15 00:28:29;;;;;;;9.17;2.23;;;;;;;-145.68;91.87;74349.38;10477084;28;20279;-70
2023/10/15 00:33:30;;;;;;;6.03;1.70;;;;;;;-145.68;92.43;74341.38;10475981;28;20687;-70
2023/10/15 00:38:31;;;;;;;8.57;2.33;;;;;;;-145.68;93.50;74353.38;10458269;28;20250;-69
2023/10/15 00:43:31;;;;;;;11.97;2.07;;;;;;;-145.68;93.56;74359.38;10468395;28;20195;-70
2023/10/15 00:48:35;;;;;;;7.80;1.90;;;;;;;-145.68;93.06;74351.38;10472832;28;20599;-70
2023/10/15 00:53:47;;;;;;;5.87;2.03;;;;;;;-145.68;93.30;74359.38;10476109;28;20667;-69
2023/10/15 01:03:59;;;;;;;8.27;1.77;;;;;;;-145.68;94.49;74363.38;10475335;28;20199;-70
2023/10/15 01:09:10;;;;;;;9.93;2.30;;;;;;;-145.68;93.72;74355.38;10440405;28;20211;-70
2023/10/15 01:14:11;;;;;;;7.93;1.80;;;;;;;-145.68;93.43;74361.38;10473066;28;20645;-70
2023/10/15 01:24:18;;;;;;;11.10;2.00;;;;;;;-145.68;91.92;74359.38;10454699;28;20191;-70
2023/10/15 01:29:23;;;;;;;8.93;1.70;;;;;;;-145.68;90.99;74359.38;10471771;28;20227;-70
2023/10/15 01:34:27;;;;;;;11.00;2.20;;;;;;;-145.68;89.41;74369.38;10474512;28;20829;-70
2023/10/15 01:39:39;;;;;;;5.50;1.77;;;;;;;-145.68;88.38;74397.34;10474817;28;20797;-70
2023/10/15 01:44:47;;;;;;;7.67;1.60;;;;;;;-145.68;88.24;74403.34;10448735;28;20666;-70
2023/10/15 01:49:53;;;;;;;11.83;1.73;;;;;;;-145.68;88.72;74423.34;10474257;28;20313;-70
2023/10/15 01:54:54;;;;;;;9.10;1.87;;;;;;;-145.68;90.50;74437.34;10475162;28;20200;-70
2023/10/15 02:00:05;;;;;;;9.83;2.20;;;;;;;-145.68;92.30;74475.31;10456345;28;20585;-70
2023/10/15 02:05:40;;;;;;;11.00;2.27;;;;;;;-145.68;94.29;74489.31;10474674;28;20198;-70
2023/10/15 02:10:46;;;;;;;6.53;2.90;;;;;;;-145.68;96.04;74515.31;10470387;28;20226;-70
2023/10/15 02:15:49;;;;;;;11.93;2.13;;;;;;;-145.68;97.57;74503.31;10462177;28;20242;-70
2023/10/15 02:25:57;;;;;;;12.03;1.70;;;;;;;-145.68;99.46;74491.31;10463438;28;20192;-70
2023/10/15 02:36:15;;;;;;;5.37;2.03;;;;;;;-145.68;98.22;74479.31;10462913;28;20207;-70
2023/10/15 02:41:17;;;;;;;9.63;2.50;;;;;;;-145.68;97.50;74481.31;10480804;28;20180;-70
2023/10/15 02:46:22;;;;;;;8.57;1.80;;;;;;;-145.68;97.56;74481.31;10470983;28;20232;-70
2023/10/15 02:51:26;;;;;;;12.17;2.33;;;;;;;-145.68;97.06;74491.31;10475182;28;20298;-70
2023/10/15 02:56:28;;;;;;;14.80;2.60;;;;;;;-145.68;97.56;74503.31;10480244;28;20630;-70
2023/10/15 03:01:28;;;;;;;12.67;2.67;;;;;;;-145.68;97.54;74523.31;10475168;28;20202;-69
2023/10/15 03:06:31;;;;;;;8.37;2.10;;;;;;;-145.68;97.73;74527.31;10479248;28;20672;-70
2023/10/15 03:11:33;;;;;;;7.90;2.23;;;;;;;-145.68;97.57;74539.31;10462147;28;20231;-69
2023/10/15 03:16:35;;;;;;;9.80;2.40;;;;;;;-145.68;98.52;74547.31;10472697;28;20225;-70
2023/10/15 03:21:39;;;;;;;10.47;2.13;;;;;;;-145.68;99.70;74557.28;10463323;28;20190;-70
2023/10/15 03:26:47;;;;;;;7.40;1.60;;;;;;;-145.68;100.00;74575.28;10461118;28;20740;-70
2023/10/15 03:31:48;;;;;;;13.47;2.27;;;;;;;-145.68;100.00;74575.28;10473108;28;20212;-70
2023/10/15 03:36:50;;;;;;;12.27;2.30;;;;;;;-145.68;100.00;74581.28;10479098;28;20220;-70
2023/10/15 03:41:58;;;;;;;14.47;2.10;;;;;;;-145.68;100.00;74593.28;10478632;28;20196;-70
2023/10/15 03:47:05;;;;;;;6.90;1.77;;;;;;;-145.68;100.00;74599.28;10475932;28;20243;-70
2023/10/15 03:52:14;;;;;;;8.93;2.17;;;;;;;-145.68;100.00;74609.28;10476325;28;20763;-70
2023/10/15 03:57:18;;;;;;;10.43;2.10;;;;;;;-145.68;100.00;74611.28;10480128;28;20724;-70
2023/10/15 04:02:24;;;;;;;11.03;2.13;;;;;;;-145.68;100.00;74607.28;10475895;28;20264;-70
2023/10/15 04:07:25;;;;;;;9.87;2.03;;;;;;;-145.68;100.00;74619.28;10478966;28;20219;-70
2023/10/15 04:12:27;;;;;;;14.17;2.37;;;;;;;-145.68;100.00;74633.28;10478642;28;20245;-70
2023/10/15 04:17:29;;;;;;;15.93;2.37;;;;;;;-145.68;100.00;74631.28;10470615;28;20226;-70
2023/10/15 04:22:29;;;;;;;9.07;2.30;;;;;;;-145.68;100.00;74623.28;10477925;28;20673;-70
2023/10/15 04:27:34;;;;;;;13.37;2.67;;;;;;;-145.68;100.00;74639.28;10477812;28;20202;-70
2023/10/15 04:37:36;;;;;;;14.10;2.13;;;;;;;-145.68;100.00;74629.28;10477712;28;20708;-70
2023/10/15 04:42:41;;;;;;;12.10;2.07;;;;;;;-145.68;100.00;74631.28;10476665;28;20207;-70
2023/10/15 04:47:41;;;;;;;11.73;2.00;;;;;;;-145.68;100.00;74651.25;10475519;28;20239;-70
2023/10/15 04:52:42;;;;;;;6.97;2.27;;;;;;;-145.68;100.00;74641.28;10477013;28;20643;-70
2023/10/15 04:57:45;;;;;;;13.20;2.43;;;;;;;-145.68;100.00;74659.25;10459203;28;20207;-70
2023/10/15 05:02:46;;;;;;;14.60;2.27;;;;;;;-145.68;100.00;74665.25;10476594;28;20669;-70
2023/10/15 05:07:46;;;;;;;9.33;2.90;;;;;;;-145.68;100.00;74669.25;10476697;28;20219;-70
2023/10/15 05:12:47;;;;;;;8.83;1.57;;;;;;;-145.68;100.00;74659.25;10477219;28;20214;-70
2023/10/15 05:17:47;;;;;;;11.80;2.27;;;;;;;-145.68;100.00;74673.25;10468299;28;20254;-70
2023/10/15 05:22:48;;;;;;;6.80;2.20;;;;;;;-145.68;100.00;74681.25;10471830;28;20642;-70
2023/10/15 05:27:52;;;;;;;14.63;2.00;;;;;;;-145.68;100.00;74675.25;10476563;28;20212;-70
2023/10/15 05:32:52;;;;;;;21.80;2.50;;;;;;;-145.68;100.00;74701.25;10476409;28;20222;-70
2023/10/15 05:37:54;;;;;;;8.73;1.73;;;;;;;-145.68;100.00;74701.25;10476178;28;20213;-70
2023/10/15 05:42:55;;;;;;;13.60;2.20;;;;;;;-145.68;100.00;74709.25;10476688;28;20267;-70
2023/10/15 05:47:55;;;;;;;11.83;2.43;;;;;;;-145.68;100.00;74709.25;10473986;28;20702;-70
2023/10/15 05:52:56;;;;;;;13.13;2.00;;;;;;;-145.68;100.00;74699.25;10475837;28;20216;-70
2023/10/15 05:57:58;;;;;;;5.30;1.87;;;;;;;-145.68;100.00;74699.25;10483311;28;20299;-70
2023/10/15 06:02:58;;;;;;;12.07;2.43;;;;;;;-145.68;100.00;74679.25;10460759;28;20188;-70
2023/10/15 06:07:59;;;;;;;11.43;2.60;;;;;;;-145.68;100.00;74673.25;10457853;28;20727;-69
2023/10/15 06:13:00;;;;;;;8.67;1.97;;;;;;;-145.68;100.00;74671.25;10459297;28;20635;-70
2023/10/15 06:18:00;;;;;;;9.80;2.57;;;;;;;-145.68;100.00;74671.25;10458535;28;20214;-70
2023/10/15 06:23:04;;;;;;;7.63;2.20;;;;;;;-145.68;100.00;74657.25;10460490;28;20192;-70
2023/10/15 06:28:05;;;;;;;11.23;2.17;;;;;;;-145.68;98.25;74625.28;10467455;28;20298;-70
2023/10/15 06:33:06;;;;;;;11.33;2.40;;;;;;;-145.68;96.50;74611.28;10459157;28;20306;-70
2023/10/15 06:38:06;;;;;;;8.50;2.33;;;;;;;-145.68;93.31;74585.28;10456814;28;20306;-69
2023/10/15 06:43:07;;;;;;;9.20;2.17;;;;;;;-145.68;89.98;74557.28;10458333;28;20680;-69
2023/10/15 06:48:07;;;;;;;13.80;2.73;;;;;;;-145.68;87.24;74525.31;10457373;28;20701;-69
2023/10/15 06:53:07;;;;;;;10.47;2.57;;;;;;;-145.68;84.60;74483.31;10455321;28;20211;-67
2023/10/15 06:58:10;;;;;;;14.50;2.10;;;;;;;-145.68;82.23;74443.34;10461237;28;20221;-68
2023/10/15 07:03:10;;;;;;;16.10;2.70;;;;;;;-145.68;78.48;74403.34;10476784;28;20195;-68
2023/10/15 07:08:11;;;;;;;7.10;2.00;;;;;;;-145.68;75.61;74317.38;10470881;28;20587;-68
2023/10/15 07:13:11;;;;;;;13.13;2.50;;;;;;;-145.68;72.64;74405.34;10480854;28;20284;-68
2023/10/15 07:18:12;;;;;;;7.00;2.17;;;;;;;-145.68;72.90;74375.38;10480908;28;20203;-68
2023/10/15 07:23:12;;;;;;;14.17;2.03;;;;;;;-145.68;71.88;74301.38;10480764;28;20194;-68
2023/10/15 07:28:13;;;;;;;11.27;3.07;;;;;;;-145.68;69.62;74275.41;10480443;28;20217;-68
2023/10/15 07:33:13;;;;;;;7.87;2.33;;;;;;;-145.68;68.65;74335.38;10479890;28;20222;-68
2023/10/15 07:38:14;;;;;;;9.13;2.30;;;;;;;-145.68;68.30;74367.38;10480120;28;20740;-68
2023/10/15 07:43:14;;;;;;;12.83;2.60;;;;;;;-145.68;68.74;74291.41;10479830;28;20195;-68
2023/10/15 07:48:15;;;;;;;8.70;1.80;;;;;;;-145.68;64.44;74209.44;10479267;28;20292;-68
2023/10/15 07:53:15;;;;;;;8.00;2.70;;;;;;;-145.68;64.38;74273.41;10479308;28;20214;-68
2023/10/15 07:58:16;;;;;;;10.43;1.90;;;;;;;-145.68;63.03;74097.47;10479070;28;20257;-67
2023/10/15 08:03:16;;;;;;;6.87;2.20;;;;;;;-145.68;60.83;74055.50;10457123;28;20188;-68
2023/10/15 08:08:17;;;;;;;7.97;1.90;;;;;;;-145.68;60.07;74057.50;10464586;28;20211;-67
2023/10/15 08:13:18;;;;;;;8.93;2.77;;;;;;;-145.68;61.53;74257.41;10467919;28;20227;-67
2023/10/15 08:18:18;;;;;;;7.57;1.93;;;;;;;-145.68;61.97;74129.47;10477851;28;20210;-67
2023/10/15 08:23:19;;;;;;;17.17;2.70;;;;;;;-145.68;62.18;74231.41;10478215;28;20183;-69
2023/10/15 08:28:19;;;;;;;6.50;1.97;;;;;;;-145.68;62.87;74191.44;10477305;28;20705;-68
2023/10/15 08:33:20;;;;;;;12.57;2.37;;;;;;;-145.68;58.30;73999.53;10475551;28;20211;-70
2023/10/15 08:38:20;;;;;;;7.73;2.30;;;;;;;-145.68;58.20;73885.56;10477525;28;20215;-69
2023/10/15 08:43:26;;;;;;;16.07;2.30;;;;;;;-145.68;56.46;73987.53;10477857;28;20530;-70
2023/10/15 08:48:28;;;;;;;10.03;2.47;;;;;;;-145.68;59.09;74063.50;10459244;28;20242;-69
2023/10/15 08:53:30;;;;;;;12.70;1.90;;;;;;;-145.68;58.39;74093.47;10477575;28;20227;-68
2023/10/15 08:58:32;;;;;;;16.73;2.90;;;;;;;-145.68;59.52;74187.44;10477074;28;20220;-68
2023/10/15 09:03:32;;;;;;;9.10;1.70;;;;;;;-145.68;58.19;74103.47;10459744;28;20183;-68
2023/10/15 09:08:35;;;;;;;7.93;2.20;;;;;;;-145.68;57.94;74067.50;10476779;28;20214;-68
2023/10/15 09:13:36;;;;;;;8.43;1.90;;;;;;;-145.68;54.69;73799.63;10477090;28;20219;-69
2023/10/15 09:18:37;;;;;;;11.02;2.30;;;;;;;-145.68;50.40;73609.72;10476960;28;21159;-69
2023/10/15 09:23:38;;;;;;;7.40;1.98;;;;;;;-145.68;49.00;73623.72;10476594;28;20219;-68
2023/10/15 09:28:39;;;;;;;9.48;1.67;;;;;;;-145.68;48.82;73639.72;10478438;28;20204;-68
2023/10/15 09:33:40;;;;;;;6.03;1.90;;;;;;;-145.68;49.27;73635.72;10477192;28;20657;-68
2023/10/15 09:38:40;;;;;;;7.30;2.13;;;;;;;-145.68;53.35;74017.50;10484768;28;20298;-67
2023/10/15 09:43:43;;;;;;;4.88;1.50;;;;;;;-145.68;51.13;73771.63;10484752;28;20201;-68
2023/10/15 09:48:45;;;;;;;8.07;1.73;;;;;;;-145.68;49.00;73685.69;10441652;28;20240;-67
2023/10/15 09:53:49;;;;;;;4.03;1.58;;;;;;;-145.68;48.65;73589.75;10443539;28;20228;-68
2023/10/15 09:58:50;;;;;;;9.20;1.60;;;;;;;-145.68;50.31;73773.63;10442852;28;20824;-69
2023/10/15 10:03:59;;;;;;;9.15;1.60;;;;;;;-145.68;52.88;73905.56;10442459;28;20303;-68
2023/10/15 10:09:36;;;;;;;10.70;2.03;;;;;;;-145.68;55.07;73935.56;10441510;28;20228;-67
2023/10/15 10:15:15;;;;;;;6.57;1.80;;;;;;;-145.68;59.65;74131.47;10442163;28;20234;-70
2023/10/15 10:20:19;;;;;;;9.10;2.20;;;;;;;-145.68;65.07;74179.44;10441648;28;20291;-68
2023/10/15 10:25:31;;;;;;;6.37;1.90;;;;;;;-145.68;66.30;74173.44;10439563;28;20735;-67
2023/10/15 10:30:32;;;;;;;8.87;2.50;;;;;;;-145.68;65.01;74087.47;10441415;28;20230;-67
2023/10/15 10:35:45;;;;;;;6.60;2.70;;;;;;;-145.68;63.14;74123.47;10441569;28;20187;-68
2023/10/15 10:40:52;;;;;;;6.80;2.23;;;;;;;-145.68;62.18;74171.44;10437103;28;20275;-68
2023/10/15 10:45:57;;;;;;;7.17;2.10;;;;;;;-145.68;62.91;74109.47;10442736;28;20569;-68
2023/10/15 10:51:11;;;;;;;5.13;1.80;;;;;;;-145.68;66.40;74269.41;10482351;28;20230;-66
2023/10/15 10:56:11;;;;;;;4.93;2.10;;;;;;;-145.68;70.41;74349.38;10482126;28;20368;-67
2023/10/15 11:01:13;;;;;;;11.80;2.50;;;;;;;-145.68;74.44;74215.44;10481693;28;20252;-67
2023/10/15 11:06:15;;;;;;;6.27;1.97;;;;;;;-145.68;67.82;74049.50;10481625;28;20264;-68
2023/10/15 11:11:19;;;;;;;6.30;1.87;;;;;;;-145.68;64.84;74017.50;10481346;28;20306;-68
2023/10/15 11:16:21;;;;;;;4.20;1.50;;;;;;;-145.68;62.10;73987.53;10478764;28;20211;-67
2023/10/15 11:21:21;;;;;;;6.73;1.93;;;;;;;-145.68;65.12;74017.50;10481153;28;20194;-68
2023/10/15 11:26:22;;;;;;;4.83;1.30;;;;;;;-145.68;71.24;74479.31;10481023;28;20229;-68
2023/10/15 11:31:22;;;;;;;4.13;1.70;;;;;;;-145.68;81.11;74703.25;10480798;28;20218;-67
2023/10/15 11:36:23;;;;;;;3.90;1.60;;;;;;;-145.68;95.72;74695.25;10480698;28;20207;-67
2023/10/15 11:41:23;;;;;;;4.53;1.40;;;;;;;-145.68;100.00;74693.25;10481851;28;20190;-67
2023/10/15 11:46:24;;;;;;;4.40;1.83;;;;;;;-145.68;100.00;74633.28;10480722;28;20264;-68
2023/10/15 11:51:25;;;;;;;2.67;1.67;;;;;;;-145.68;100.00;74583.28;10479833;28;20589;-68
2023/10/15 11:56:26;;;;;;;5.17;2.13;;;;;;;-145.68;100.00;74507.31;10480636;28;20684;-69
2023/10/15 12:01:26;;;;;;;4.13;2.37;;;;;;;-145.68;100.00;74463.31;10503589;28;20193;-68
2023/10/15 12:06:28;;;;;;;6.73;2.50;;;;;;;-145.68;100.00;74477.31;10501260;28;20249;-69
2023/10/15 12:11:28;;;;;;;8.43;3.17;;;;;;;-145.68;100.00;74377.38;10479010;28;20219;-69
2023/10/15 12:16:29;;;;;;;7.40;2.70;;;;;;;-145.68;100.00;74303.38;10478534;28;20219;-70
2023/10/15 12:21:29;;;;;;;9.60;3.00;;;;;;;-145.68;92.03;74311.38;10478624;28;20187;-69
2023/10/15 12:26:29;;;;;;;3.90;2.17;;;;;;;-145.68;92.55;74245.41;10478557;28;20306;-69
2023/10/15 12:31:32;;;;;;;5.20;2.20;;;;;;;-145.68;92.32;74233.41;10478335;28;20222;-70
2023/10/15 12:36:33;;;;;;;8.90;2.37;;;;;;;-145.68;88.81;74307.38;10478097;28;20769;-69
2023/10/15 12:41:38;;;;;;;3.67;1.73;;;;;;;-145.68;89.15;74337.38;10478091;28;20193;-69
2023/10/15 12:46:40;;;;;;;7.67;2.50;;;;;;;-145.68;92.24;74427.34;10477847;28;20243;-69
2023/10/15 12:51:41;;;;;;;5.50;2.23;;;;;;;-145.68;99.44;74397.34;10469923;28;20220;-68
2023/10/15 12:56:41;;;;;;;12.13;4.13;;;;;;;-145.68;100.00;74383.34;10477208;28;20336;-68
2023/10/15 13:01:42;;;;;;;7.97;2.37;;;;;;;-145.68;100.00;74527.31;10477592;28;20187;-68
2023/10/15 13:06:43;;;;;;;4.80;2.10;;;;;;;-145.68;100.00;74639.28;10477189;28;20223;-67
2023/10/15 13:11:43;;;;;;;4.53;2.27;;;;;;;-145.68;100.00;74665.25;10477222;28;20316;-69
2023/10/15 13:16:44;;;;;;;4.43;2.33;;;;;;;-145.68;100.00;74603.28;10477340;28;20242;-69
2023/10/15 13:21:44;;;;;;;3.47;2.20;;;;;;;-145.68;100.00;74511.31;10477187;28;20194;-69
2023/10/15 13:26:47;;;;;;;3.47;2.60;;;;;;;-145.68;100.00;74321.38;10477100;28;20270;-71
2023/10/15 13:31:48;;;;;;;2.77;1.70;;;;;;;-145.68;100.00;74415.34;10476389;28;20599;-70
2023/10/15 13:36:49;;;;;;;5.63;2.17;;;;;;;-145.68;100.00;74343.38;10474492;28;20216;-69
2023/10/15 13:41:49;;;;;;;4.97;2.50;;;;;;;-145.68;96.04;74173.44;10473735;28;20538;-67
2023/10/15 13:46:50;;;;;;;3.50;1.70;;;;;;;-145.68;85.47;73979.53;10468537;28;20243;-70
2023/10/15 13:51:50;;;;;;;4.43;1.90;;;;;;;-145.68;75.56;73993.53;10464207;28;20701;-71
2023/10/15 13:56:51;;;;;;;7.17;2.20;;;;;;;-145.68;72.28;74103.47;10463444;28;20223;-72
2023/10/15 14:01:57;;;;;;;5.33;2.10;;;;;;;-145.68;75.66;74307.38;10447417;28;20188;-71
2023/10/15 14:06:58;;;;;;;5.67;1.67;;;;;;;-145.68;78.68;74247.41;10442528;28;20755;-69
2023/10/15 14:11:58;;;;;;;3.77;1.67;;;;;;;-145.68;76.08;74267.41;10450499;28;20281;-70
2023/10/15 14:16:58;;;;;;;4.23;1.33;;;;;;;-145.68;76.75;74355.38;10462317;28;20246;-69
2023/10/15 14:21:59;;;;;;;5.20;2.00;;;;;;;-145.68;77.65;74283.41;10465891;28;20196;-69
2023/10/15 14:26:59;;;;;;;7.10;2.60;;;;;;;-145.68;76.74;74333.38;10470044;28;20207;-69
2023/10/15 14:32:00;;;;;;;6.97;2.03;;;;;;;-145.68;76.49;74257.41;10483003;28;20215;-68
2023/10/15 14:37:01;;;;;;;5.73;2.50;;;;;;;-145.68;74.86;74249.41;10482603;28;20211;-69
2023/10/15 14:42:02;;;;;;;3.47;1.70;;;;;;;-145.68;75.48;74265.41;10482751;28;20187;-68
2023/10/15 14:47:02;;;;;;;6.30;2.10;;;;;;;-145.68;77.10;74301.38;10481447;28;20319;-69
2023/10/15 14:52:03;;;;;;;8.50;4.23;;;;;;;-145.68;83.81;74397.34;10482073;28;20701;-67
2023/10/15 14:57:04;;;;;;;5.93;2.13;;;;;;;-145.68;93.38;74601.28;10482206;28;20202;-65
2023/10/15 15:02:04;;;;;;;2.87;1.63;;;;;;;-145.68;100.00;74631.28;10464059;28;20187;-67
2023/10/15 15:07:05;;;;;;;3.30;2.00;;;;;;;-145.68;100.00;74639.28;10471518;28;20297;-68
2023/10/15 15:12:05;;;;;;;6.80;1.90;;;;;;;-145.68;100.00;74633.28;10475152;28;20211;-67
2023/10/15 15:17:07;;;;;;;18.77;8.80;;;;;;;-145.68;100.00;74651.25;10477463;28;20233;-65
2023/10/15 15:22:07;;;;;;;22.70;10.17;;;;;;;-145.68;100.00;74681.25;10477092;28;20202;-69
2023/10/15 15:27:08;;;;;;;4.73;2.20;;;;;;;-145.68;100.00;74709.25;10471265;28;20211;-66
2023/10/15 15:32:08;;;;;;;5.00;1.87;;;;;;;-145.68;100.00;74671.25;10475716;28;20261;-69
2023/10/15 15:37:09;;;;;;;4.93;1.90;;;;;;;-145.68;100.00;74659.25;10475877;28;20219;-69
2023/10/15 15:42:09;;;;;;;5.87;2.20;;;;;;;-145.68;100.00;74683.25;10476568;28;20254;-69
2023/10/15 15:47:12;;;;;;;4.97;2.17;;;;;;;-145.68;100.00;74707.25;10472996;28;20254;-68
2023/10/15 15:52:13;;;;;;;5.57;2.07;;;;;;;-145.68;100.00;74745.25;10476148;28;20211;-69
2023/10/15 15:57:14;;;;;;;3.87;2.20;;;;;;;-145.68;100.00;74741.25;10475707;28;20645;-68
2023/10/15 16:02:14;;;;;;;7.63;2.80;;;;;;;-145.68;100.00;74765.22;10475847;28;20191;-70
2023/10/15 16:07:14;;;;;;;2.53;2.20;;;;;;;-145.68;100.00;74775.22;10475021;28;20211;-69
2023/10/15 16:12:15;;;;;;;4.57;2.73;;;;;;;-145.68;100.00;74791.22;10474971;28;20723;-68
2023/10/15 16:17:15;;;;;;;6.20;2.20;;;;;;;-145.68;100.00;74775.22;10475167;28;20211;-68
2023/10/15 16:22:16;;;;;;;5.87;1.97;;;;;;;-145.68;100.00;74775.22;10474579;28;20184;-68
2023/10/15 16:27:17;;;;;;;5.73;1.60;;;;;;;-145.68;100.00;74787.22;10460793;28;20215;-69
2023/10/15 16:32:18;;;;;;;7.33;2.20;;;;;;;-145.68;100.00;74797.22;10473324;28;20571;-70
2023/10/15 16:37:19;;;;;;;6.30;1.80;;;;;;;-145.68;100.00;74805.22;10473581;28;20241;-71
2023/10/15 16:42:19;;;;;;;3.27;2.27;;;;;;;-145.68;100.00;74815.22;10473995;28;20252;-70
2023/10/15 16:47:20;;;;;;;3.27;2.17;;;;;;;-145.68;100.00;74835.22;10474252;28;20239;-68
2023/10/15 16:52:20;;;;;;;3.20;2.03;;;;;;;-145.68;100.00;74815.22;10474601;28;20313;-68
2023/10/15 16:57:21;;;;;;;6.47;2.20;;;;;;;-145.68;100.00;74841.22;10473752;28;20724;-67
2023/10/15 17:02:23;;;;;;;5.93;3.27;;;;;;;-145.68;100.00;74837.22;10471928;28;20247;-69
2023/10/15 17:07:30;;;;;;;2.17;1.90;;;;;;;-145.68;100.00;74847.22;10473500;28;20264;-68
2023/10/15 17:12:30;;;;;;;5.00;1.90;;;;;;;-145.68;100.00;74883.19;10473684;28;20223;-69
2023/10/15 17:17:30;;;;;;;4.37;2.60;;;;;;;-145.68;100.00;74911.19;10464909;28;20208;-69
2023/10/15 17:22:31;;;;;;;5.83;4.27;;;;;;;-145.68;100.00;74921.19;10468915;28;20187;-69
2023/10/15 17:27:35;;;;;;;4.47;2.60;;;;;;;-145.68;100.00;74929.19;10476733;28;20271;-70
2023/10/15 17:32:35;;;;;;;4.07;2.87;;;;;;;-145.68;100.00;74949.19;10470566;28;20260;-70
2023/10/15 17:37:36;;;;;;;3.10;1.80;;;;;;;-145.68;100.00;74959.19;10462530;28;20219;-70
2023/10/15 17:42:38;;;;;;;5.03;3.70;;;;;;;-145.68;100.00;74963.19;10473629;28;20198;-69
2023/10/15 17:47:38;;;;;;;4.13;2.67;;;;;;;-145.68;100.00;74967.19;10473198;28;20239;-70
2023/10/15 17:52:40;;;;;;;2.43;1.60;;;;;;;-145.68;100.00;74967.19;10483255;28;20216;-69
2023/10/15 17:57:40;;;;;;;4.80;2.00;;;;;;;-145.68;100.00;74967.19;10469119;28;20230;-70
2023/10/15 18:02:45;;;;;;;1.90;1.80;;;;;;;-145.68;100.00;74979.19;10482425;28;20184;-70
2023/10/15 18:07:45;;;;;;;3.93;2.00;;;;;;;-145.68;100.00;74987.16;10484325;28;20303;-71
2023/10/15 18:12:46;;;;;;;4.70;1.70;;;;;;;-145.68;100.00;74995.16;10462432;28;20219;-70
2023/10/15 18:17:47;;;;;;;2.23;2.03;;;;;;;-145.68;100.00;75005.16;10476169;28;20226;-70
2023/10/15 18:22:47;;;;;;;3.80;1.93;;;;;;;-145.68;100.00;75003.16;10481739;28;20198;-71
2023/10/15 18:27:48;;;;;;;3.47;1.70;;;;;;;-145.68;100.00;74991.16;10483064;28;20245;-70
2023/10/15 18:32:49;;;;;;;3.60;2.10;;;;;;;-145.68;100.00;74975.19;10470345;28;20227;-70
2023/10/15 18:37:49;;;;;;;4.00;2.23;;;;;;;-145.68;100.00;74995.16;10476267;28;20223;-70
2023/10/15 18:42:50;;;;;;;3.17;2.17;;;;;;;-145.68;100.00;75003.16;10482794;28;20200;-70
2023/10/15 18:47:54;;;;;;;3.13;1.90;;;;;;;-145.68;100.00;75003.16;10481571;28;20239;-70
2023/10/15 18:52:54;;;;;;;1.83;1.70;;;;;;;-145.68;100.00;75015.16;10476678;28;20227;-70
2023/10/15 18:57:54;;;;;;;5.33;1.93;;;;;;;-145.68;100.00;75013.16;10481628;28;20269;-70
2023/10/15 19:02:55;;;;;;;4.03;2.10;;;;;;;-145.68;100.00;75031.16;10481327;28;20188;-70
2023/10/15 19:07:55;;;;;;;5.87;2.30;;;;;;;-145.68;100.00;75035.16;10481868;28;20208;-70
2023/10/15 19:12:58;;;;;;;3.90;2.67;;;;;;;-145.68;100.00;75031.16;10480711;28;20299;-70
2023/10/15 19:17:59;;;;;;;4.20;2.60;;;;;;;-145.68;100.00;75045.16;10481407;28;20271;-70
2023/10/15 19:22:59;;;;;;;4.33;2.43;;;;;;;-145.68;100.00;75037.16;10481319;28;20248;-70
2023/10/15 19:28:01;;;;;;;6.40;3.23;;;;;;;-145.68;100.00;75043.16;10480692;28;20221;-68
2023/10/15 19:33:01;;;;;;;6.60;2.90;;;;;;;-145.68;100.00;75039.16;10480934;28;20227;-70
2023/10/15 19:38:04;;;;;;;5.87;2.60;;;;;;;-145.68;100.00;75027.16;10480178;28;20587;-69
2023/10/15 19:43:05;;;;;;;5.20;2.90;;;;;;;-145.68;100.00;75029.16;10480514;28;20262;-69
2023/10/15 19:48:05;;;;;;;4.20;2.40;;;;;;;-145.68;100.00;75023.16;10479560;28;20245;-69
2023/10/15 19:53:07;;;;;;;9.17;2.60;;;;;;;-145.68;100.00;75031.16;10479832;28;20218;-69
2023/10/15 19:58:09;;;;;;;6.20;2.47;;;;;;;-145.68;100.00;75035.16;10479790;28;20705;-70
2023/10/15 20:03:11;;;;;;;4.33;2.30;;;;;;;-145.68;100.00;75041.16;10479421;28;20681;-70
2023/10/15 20:08:12;;;;;;;3.90;2.50;;;;;;;-145.68;100.00;75051.16;10462847;28;20226;-70
2023/10/15 20:13:14;;;;;;;2.90;2.50;;;;;;;-145.68;100.00;75071.16;10460308;28;20570;-69
2023/10/15 20:18:14;;;;;;;6.40;2.67;;;;;;;-145.68;100.00;75063.16;10458513;28;20215;-69
2023/10/15 20:23:15;;;;;;;2.90;2.67;;;;;;;-145.68;100.00;75073.16;10478129;28;20191;-70
2023/10/15 20:28:15;;;;;;;5.10;2.67;;;;;;;-145.68;100.00;75073.16;10478414;28;20585;-70
2023/10/15 20:33:16;;;;;;;3.13;2.60;;;;;;;-145.68;100.00;75067.16;10460909;28;20215;-69
2023/10/15 20:38:17;;;;;;;4.77;2.80;;;;;;;-145.68;100.00;75083.16;10478288;28;20207;-70
2023/10/15 20:43:20;;;;;;;3.63;2.50;;;;;;;-145.68;100.00;75093.16;10478776;28;20187;-70
2023/10/15 20:48:20;;;;;;;5.93;3.20;;;;;;;-145.68;100.00;75099.16;10478110;28;20235;-70
2023/10/15 20:53:21;;;;;;;6.83;2.60;;;;;;;-145.68;100.00;75125.16;10478201;28;20592;-70
2023/10/15 20:58:21;;;;;;;4.27;2.53;;;;;;;-145.68;100.00;75133.16;10478135;28;20946;-69
2023/10/15 21:03:22;;;;;;;3.33;2.60;;;;;;;-145.68;100.00;75151.13;10477856;28;20214;-70
2023/10/15 21:08:23;;;;;;;5.47;2.83;;;;;;;-145.68;100.00;75143.13;10477736;28;20207;-71
2023/10/15 21:13:24;;;;;;;5.70;3.00;;;;;;;-145.68;100.00;75153.13;10477511;28;20215;-69
2023/10/15 21:18:24;;;;;;;3.10;2.80;;;;;;;-145.68;100.00;75165.13;10477753;28;20222;-69
2023/10/15 21:23:25;;;;;;;7.33;3.13;;;;;;;-145.68;100.00;75171.13;10478216;28;20244;-71
2023/10/15 21:28:26;;;;;;;3.97;3.20;;;;;;;-145.68;100.00;75157.13;10491252;28;20673;-70
2023/10/15 21:33:27;;;;;;;7.50;3.57;;;;;;;-145.68;100.00;75187.13;10491261;28;20219;-71
2023/10/15 21:38:27;;;;;;;6.10;2.77;;;;;;;-145.68;100.00;75201.13;10490972;28;20211;-71
2023/10/15 21:43:27;;;;;;;5.53;2.97;;;;;;;-145.68;100.00;75213.13;10491269;28;20500;-70
2023/10/15 21:48:28;;;;;;;5.93;2.70;;;;;;;-145.68;100.00;75213.13;10490642;28;20303;-71
2023/10/15 21:53:28;;;;;;;5.17;2.60;;;;;;;-145.68;100.00;75205.13;10490932;28;20596;-70
2023/10/15 21:58:28;;;;;;;6.47;2.70;;;;;;;-145.68;100.00;75219.13;10490707;28;20482;-71
2023/10/15 22:03:29;;;;;;;5.67;3.07;;;;;;;-145.68;100.00;75225.13;10490682;28;20198;-70
2023/10/15 22:08:29;;;;;;;3.77;2.73;;;;;;;-145.68;100.00;75237.13;10500269;28;20231;-71
2023/10/15 22:13:30;;;;;;;3.53;2.80;;;;;;;-145.68;100.00;75219.13;10490250;28;20606;-71
2023/10/15 22:18:31;;;;;;;3.87;2.87;;;;;;;-145.68;100.00;75227.13;10490449;28;20206;-69
2023/10/15 22:23:36;;;;;;;3.80;2.60;;;;;;;-145.68;100.00;75229.13;10490188;28;20665;-71
2023/10/15 22:28:37;;;;;;;4.00;2.90;;;;;;;-145.68;100.00;75241.13;10490349;28;20701;-71
2023/10/15 22:33:37;;;;;;;5.33;2.30;;;;;;;-145.68;100.00;75241.13;10490144;28;20211;-71
2023/10/15 22:38:38;;;;;;;5.73;2.10;;;;;;;-145.68;100.00;75247.13;10483637;28;20215;-71
2023/10/15 22:43:38;;;;;;;3.80;1.90;;;;;;;-145.68;100.00;75255.13;10483632;28;20196;-71
2023/10/15 22:48:38;;;;;;;4.27;2.40;;;;;;;-145.68;100.00;75259.13;10482538;28;20603;-70
2023/10/15 22:53:39;;;;;;;3.40;2.40;;;;;;;-145.68;100.00;75263.13;10482959;28;20215;-70
2023/10/15 22:58:41;;;;;;;4.37;2.90;;;;;;;-145.68;100.00;75269.13;10474758;28;20609;-70
2023/10/15 23:03:44;;;;;;;7.67;2.80;;;;;;;-145.68;100.00;75275.13;10482712;28;20196;-70
2023/10/15 23:08:46;;;;;;;3.47;2.40;;;;;;;-145.68;100.00;75269.13;10482315;28;20615;-71